Time;durP1;ratioP1;P1;durP2;ratioP2;P2;SDS_P1;SDS_P2;PMS_P1;PMS_P2;Temp;Humidity;BMP_temperature;BMP_pressure;BME280_temperature;BME280_humidity;BME280_pressure;Samples;Min_cycle;Max_cycle;Signal;HPM_P1;HPM_P2
2022/07/18 00:01:50;;;;;;;;;;;;;;;17.78;57.20;102354.50;5059999;28;19931;-58
2022/07/18 00:04:15;;;;;;;;;;;;;;;17.75;59.27;102349.47;5055097;28;19939;-58
2022/07/18 00:06:40;;;;;;;;;;;;;;;17.67;56.96;102346.81;5053066;28;19940;-58
2022/07/18 00:09:06;;;;;;;;;;;;;;;17.58;58.05;102344.13;5058512;28;20047;-58
2022/07/18 00:11:31;;;;;;;;;;;;;;;17.55;56.52;102344.50;5059768;28;20031;-58
2022/07/18 00:13:56;;;;;;;;;;;;;;;17.56;56.87;102346.16;5055156;28;19947;-58
2022/07/18 00:16:22;;;;;;;;;;;;;;;17.56;56.97;102351.53;5064779;28;20698;-58
2022/07/18 00:18:48;;;;;;;;;;;;;;;17.51;58.91;102337.78;5059062;28;19947;-57
2022/07/18 00:21:13;;;;;;;;;;;;;;;17.47;58.21;102336.47;5062109;28;20375;-58
2022/07/18 00:23:38;;;;;;;;;;;;;;;17.44;57.32;102343.00;5059499;28;20019;-58
2022/07/18 00:26:03;;;;;;;;;;;;;;;17.43;57.88;102335.13;5065547;28;19974;-58
2022/07/18 00:28:30;;;;;;;;;;;;;;;17.42;57.56;102328.91;5058886;28;21418;-58
2022/07/18 00:30:56;;;;;;;;;;;;;;;17.42;57.82;102326.25;5061449;28;19924;-57
2022/07/18 00:33:21;;;;;;;;;;;;;;;17.43;57.53;102321.72;5063688;28;21045;-58
2022/07/18 00:35:46;;;;;;;;;;;;;;;17.44;57.73;102318.03;5059277;28;19935;-58
2022/07/18 00:38:11;;;;;;;;;;;;;;;17.43;57.69;102319.88;5063777;28;19930;-58
2022/07/18 00:40:37;;;;;;;;;;;;;;;17.40;57.94;102314.00;5039998;28;19925;-58
2022/07/18 00:43:02;;;;;;;;;;;;;;;17.40;57.76;102314.00;5059899;28;19979;-58
2022/07/18 00:45:27;;;;;;;;;;;;;;;17.37;57.65;102314.38;5062156;28;19925;-58
2022/07/18 00:47:52;;;;;;;;;;;;;;;17.36;57.32;102313.50;5050451;28;19971;-58
2022/07/18 00:50:21;;;;;;;;;;;;;;;17.37;57.79;102314.38;5051598;28;20024;-58
2022/07/18 00:52:47;;;;;;;;;;;;;;;17.36;58.03;102315.38;5059165;28;20355;-57
2022/07/18 00:55:12;;;;;;;;;;;;;;;17.33;57.66;102314.69;5063485;28;20045;-57
2022/07/18 00:57:39;;;;;;;;;;;;;;;17.32;58.45;102315.72;5062304;28;19967;-58
2022/07/18 01:02:49;;;;;;;;;;;;;;;17.28;57.84;102306.34;5062702;28;19934;-58
2022/07/18 01:05:14;;;;;;;;;;;;;;;17.25;57.63;102301.31;5059488;28;19924;-58
2022/07/18 01:07:39;;;;;;;;;;;;;;;17.24;57.75;102305.00;5049229;28;19939;-58
2022/07/18 01:10:05;;;;;;;;;;;;;;;17.20;57.80;102299.16;5071258;28;19924;-58
2022/07/18 01:12:30;;;;;;;;;;;;;;;17.19;57.59;102304.69;5055143;28;20449;-58
2022/07/18 01:14:57;;;;;;;;;;;;;;;17.18;57.47;102305.69;5060679;28;19931;-58
2022/07/18 01:17:22;;;;;;;;;;;;;;;17.14;57.74;102296.31;5044943;28;20011;-58
2022/07/18 01:19:48;;;;;;;;;;;;;;;17.11;57.44;102292.13;5062488;28;20035;-57
2022/07/18 01:22:14;;;;;;;;;;;;;;;17.11;57.30;102299.34;5049815;28;19925;-58
2022/07/18 01:24:40;;;;;;;;;;;;;;;17.12;57.57;102285.75;5062714;28;19939;-57
2022/07/18 01:27:06;;;;;;;;;;;;;;;17.12;57.31;102295.66;5065019;28;19924;-57
2022/07/18 01:29:31;;;;;;;;;;;;;;;17.12;57.74;102290.28;5058514;28;19931;-58
2022/07/18 01:31:56;;;;;;;;;;;;;;;17.12;57.04;102303.69;5054098;28;20294;-58
2022/07/18 01:34:22;;;;;;;;;;;;;;;17.13;57.19;102300.00;5049303;28;19924;-57
2022/07/18 01:36:47;;;;;;;;;;;;;;;17.13;57.57;102294.63;5069987;28;19960;-57
2022/07/18 01:39:12;;;;;;;;;;;;;;;17.13;57.17;102297.31;5055823;28;19958;-58
2022/07/18 01:41:37;;;;;;;;;;;;;;;17.10;57.45;102297.63;5055395;28;20405;-58
2022/07/18 01:44:03;;;;;;;;;;;;;;;17.08;57.36;102295.97;5063989;28;20370;-58
2022/07/18 01:46:28;;;;;;;;;;;;;;;17.07;57.07;102294.31;5065372;28;19927;-58
2022/07/18 01:48:53;;;;;;;;;;;;;;;17.06;57.23;102298.00;5064324;28;19924;-57
2022/07/18 01:51:19;;;;;;;;;;;;;;;17.05;57.10;102293.66;5054640;28;19932;-57
2022/07/18 01:53:52;;;;;;;;;;;;;;;17.04;57.16;102294.66;5065379;28;19924;-58
2022/07/18 01:56:17;;;;;;;;;;;;;;;17.01;57.14;102289.59;5060408;28;19934;-58
2022/07/18 01:58:43;;;;;;;;;;;;;;;17.00;56.95;102293.28;5056019;28;20023;-58
2022/07/18 02:01:08;;;;;;;;;;;;;;;16.99;57.05;102288.94;5060220;28;19970;-57
2022/07/18 02:03:33;;;;;;;;;;;;;;;16.98;57.25;102289.94;5062095;28;20027;-57
2022/07/18 02:05:59;;;;;;;;;;;;;;;16.98;57.27;102289.09;5066336;28;20402;-58
2022/07/18 02:08:24;;;;;;;;;;;;;;;16.96;57.52;102288.44;5059636;28;20035;-58
2022/07/18 02:10:49;;;;;;;;;;;;;;;16.93;57.28;102286.94;5061551;28;20682;-58
2022/07/18 02:13:16;;;;;;;;;;;;;;;16.91;57.07;102279.03;5054392;28;19928;-57
2022/07/18 02:15:41;;;;;;;;;;;;;;;16.90;57.25;102276.53;5063661;28;19943;-58
2022/07/18 02:18:07;;;;;;;;;;;;;;;16.74;57.72;102278.22;5062560;28;19924;-58
2022/07/18 02:20:32;;;;;;;;;;;;;;;16.65;57.33;102274.72;5053550;28;19932;-57
2022/07/18 02:22:57;;;;;;;;;;;;;;;16.65;57.86;102271.19;5053882;28;20350;-57
2022/07/18 02:25:23;;;;;;;;;;;;;;;16.63;57.67;102270.53;5053194;28;19920;-58
2022/07/18 02:27:48;;;;;;;;;;;;;;;16.58;57.78;102267.50;5060518;28;20031;-57
2022/07/18 02:30:14;;;;;;;;;;;;;;;16.53;57.71;102268.81;5062820;28;19970;-57
2022/07/18 02:32:39;;;;;;;;;;;;;;;16.54;57.64;102261.66;5055275;28;19967;-58
2022/07/18 02:35:06;;;;;;;;;;;;;;;16.54;58.03;102265.16;5067048;28;20319;-58
2022/07/18 02:37:31;;;;;;;;;;;;;;;16.56;57.60;102256.09;5074424;28;19928;-58
2022/07/18 02:39:56;;;;;;;;;;;;;;;16.56;57.78;102269.50;5061577;28;19935;-58
2022/07/18 02:42:21;;;;;;;;;;;;;;;16.54;57.79;102265.16;5055945;28;19964;-57
2022/07/18 02:44:46;;;;;;;;;;;;;;;16.49;58.00;102259.44;5057435;28;19947;-57
2022/07/18 02:47:12;;;;;;;;;;;;;;;16.46;57.42;102251.75;5062302;28;19924;-58
2022/07/18 02:49:38;;;;;;;;;;;;;;;16.44;58.09;102250.25;5062830;28;19924;-58
2022/07/18 02:52:05;;;;;;;;;;;;;;;16.43;57.78;102256.63;5061609;28;19960;-57
2022/07/18 02:54:31;;;;;;;;;;;;;;;16.40;57.74;102255.09;5064572;28;19925;-57
2022/07/18 02:56:56;;;;;;;;;;;;;;;16.39;58.01;102261.47;5058856;28;19932;-57
2022/07/18 02:59:21;;;;;;;;;;;;;;;16.38;57.74;102262.47;5062219;28;20382;-57
2022/07/18 03:01:48;;;;;;;;;;;;;;;16.36;57.88;102264.47;5065182;28;19924;-58
2022/07/18 03:04:14;;;;;;;;;;;;;;;16.35;57.80;102257.44;5060223;28;20474;-57
2022/07/18 03:06:39;;;;;;;;;;;;;;;16.30;57.72;102257.09;5061755;28;20015;-58
2022/07/18 03:09:04;;;;;;;;;;;;;;;16.26;58.23;102260.09;5049466;28;20386;-57
2022/07/18 03:11:29;;;;;;;;;;;;;;;16.25;58.44;102246.88;5063072;28;19924;-57
2022/07/18 03:13:55;;;;;;;;;;;;;;;16.22;58.02;102245.38;5072554;28;19924;-58
2022/07/18 03:16:20;;;;;;;;;;;;;;;16.21;58.31;102241.03;5053649;28;19935;-58
2022/07/18 03:18:45;;;;;;;;;;;;;;;16.19;58.16;102226.94;5059808;28;19986;-58
2022/07/18 03:21:10;;;;;;;;;;;;;;;16.17;58.42;102228.97;5061059;28;19947;-57
2022/07/18 03:23:35;;;;;;;;;;;;;;;16.14;58.42;102223.97;5057070;28;19974;-57
2022/07/18 03:26:00;;;;;;;;;;;;;;;16.13;58.23;102224.94;5065273;28;19925;-57
2022/07/18 03:28:26;;;;;;;;;;;;;;;16.11;58.48;102226.94;5047476;28;20294;-57
2022/07/18 03:30:51;;;;;;;;;;;;;;;16.09;58.49;102219.06;5060163;28;19928;-57
2022/07/18 03:33:17;;;;;;;;;;;;;;;16.07;58.73;102222.91;5068055;28;19944;-57
2022/07/18 03:35:42;;;;;;;;;;;;;;;16.04;58.33;102225.94;5073495;28;20431;-57
2022/07/18 03:38:07;;;;;;;;;;;;;;;16.02;58.80;102222.59;5054804;28;19924;-57
2022/07/18 03:40:32;;;;;;;;;;;;;;;15.99;58.45;102221.09;5060619;28;19924;-57
2022/07/18 03:42:58;;;;;;;;;;;;;;;15.95;58.40;102209.03;5061598;28;19920;-58
2022/07/18 03:45:23;;;;;;;;;;;;;;;15.92;58.84;102220.91;5047459;28;19929;-58
2022/07/18 03:47:48;;;;;;;;;;;;;;;15.92;59.00;102225.34;5056781;28;19935;-58
2022/07/18 03:50:13;;;;;;;;;;;;;;;15.90;59.16;102222.88;5062163;28;19960;-58
2022/07/18 03:52:38;;;;;;;;;;;;;;;15.87;58.97;102224.03;5059676;28;20573;-58
2022/07/18 03:55:04;;;;;;;;;;;;;;;15.87;58.99;102228.53;5064688;28;19924;-57
2022/07/18 03:57:29;;;;;;;;;;;;;;;15.87;58.91;102223.19;5059158;28;19929;-57
2022/07/18 03:59:55;;;;;;;;;;;;;;;15.86;58.74;102217.00;5060704;28;19928;-58
2022/07/18 04:02:20;;;;;;;;;;;;;;;15.86;58.99;102214.34;5058837;28;19921;-58
2022/07/18 04:04:45;;;;;;;;;;;;;;;15.86;58.50;102221.50;5063594;28;19946;-57
2022/07/18 04:07:10;;;;;;;;;;;;;;;15.87;59.04;102221.34;5067598;28;19924;-57
2022/07/18 04:09:36;;;;;;;;;;;;;;;15.87;58.51;102217.84;5065460;28;20023;-58
2022/07/18 04:12:01;;;;;;;;;;;;;;;15.88;58.67;102219.50;5066147;28;19932;-57
2022/07/18 04:14:26;;;;;;;;;;;;;;;15.87;58.70;102218.69;5067321;28;19924;-58
2022/07/18 04:16:51;;;;;;;;;;;;;;;15.87;59.02;102217.84;5062746;28;19974;-57
2022/07/18 04:19:17;;;;;;;;;;;;;;;15.86;58.99;102205.47;5065521;28;20422;-58
2022/07/18 04:21:42;;;;;;;;;;;;;;;15.86;58.76;102203.63;5061889;28;19932;-58
2022/07/18 04:24:08;;;;;;;;;;;;;;;15.86;59.19;102194.75;5066238;28;19931;-57
2022/07/18 04:26:33;;;;;;;;;;;;;;;15.87;59.54;102204.47;5075599;28;20436;-57
2022/07/18 04:28:58;;;;;;;;;;;;;;;15.87;59.44;102201.78;5058563;28;19939;-58
2022/07/18 04:31:23;;;;;;;;;;;;;;;15.86;59.31;102197.44;5066933;28;19929;-58
2022/07/18 04:33:48;;;;;;;;;;;;;;;15.87;59.46;102191.94;5057831;28;19938;-57
2022/07/18 04:36:14;;;;;;;;;;;;;;;15.88;58.68;102190.06;5057821;28;19924;-57
2022/07/18 04:38:39;;;;;;;;;;;;;;;15.90;58.58;102190.78;5070400;28;19951;-58
2022/07/18 04:41:04;;;;;;;;;;;;;;;15.92;58.92;102191.47;5066633;28;19924;-58
2022/07/18 04:43:30;;;;;;;;;;;;;;;15.93;59.17;102195.81;5058691;28;20340;-58
2022/07/18 04:45:55;;;;;;;;;;;;;;;15.94;59.81;102192.13;5058042;28;19963;-58
2022/07/18 04:48:20;;;;;;;;;;;;;;;15.95;60.00;102193.84;5052402;28;19924;-57
2022/07/18 04:50:46;;;;;;;;;;;;;;;15.95;59.68;102193.84;5057737;28;19924;-58
2022/07/18 04:53:11;;;;;;;;;;;;;;;15.95;59.87;102188.47;5078850;28;20400;-58
2022/07/18 04:55:36;;;;;;;;;;;;;;;15.96;59.86;102190.16;5058682;28;19928;-58
2022/07/18 04:58:01;;;;;;;;;;;;;;;15.97;59.75;102199.00;5065298;28;19924;-58
2022/07/18 05:00:27;;;;;;;;;;;;;;;16.01;59.70;102197.66;5075035;28;20324;-58
2022/07/18 05:02:53;;;;;;;;;;;;;;;16.05;59.31;102193.69;5061249;28;19963;-58
2022/07/18 05:05:19;;;;;;;;;;;;;;;16.09;59.17;102196.84;5069812;28;19928;-58
2022/07/18 05:07:45;;;;;;;;;;;;;;;16.12;59.71;102193.84;5066946;28;19920;-57
2022/07/18 05:10:11;;;;;;;;;;;;;;;16.16;59.36;102195.19;5064770;28;19920;-58
2022/07/18 05:12:37;;;;;;;;;;;;;;;16.21;60.37;102194.69;5052873;28;20040;-58
2022/07/18 05:15:07;;;;;;;;;;;;;;;16.23;59.60;102196.19;5057130;28;19925;-58
2022/07/18 05:17:32;;;;;;;;;;;;;;;16.25;60.12;102194.16;5065186;28;19970;-57
2022/07/18 05:19:57;;;;;;;;;;;;;;;16.28;59.44;102198.38;5056734;28;19924;-57
2022/07/18 05:22:22;;;;;;;;;;;;;;;16.31;59.47;102198.03;5065001;28;19971;-57
2022/07/18 05:24:48;;;;;;;;;;;;;;;16.34;59.88;102202.22;5058549;28;19928;-58
2022/07/18 05:27:13;;;;;;;;;;;;;;;16.36;60.46;102197.53;5067640;28;20390;-58
2022/07/18 05:29:38;;;;;;;;;;;;;;;16.39;59.59;102194.53;5065587;28;20438;-58
2022/07/18 05:32:04;;;;;;;;;;;;;;;16.43;60.05;102200.41;5057288;28;19931;-58
2022/07/18 05:34:29;;;;;;;;;;;;;;;16.45;59.90;102199.22;5062087;28;19948;-56
2022/07/18 05:36:55;;;;;;;;;;;;;;;16.50;60.05;102202.25;5043887;28;20357;-58
2022/07/18 05:39:20;;;;;;;;;;;;;;;16.55;60.04;102201.72;5076220;28;19924;-57
2022/07/18 05:41:45;;;;;;;;;;;;;;;16.62;59.50;102199.22;5065697;28;19955;-61
2022/07/18 05:44:11;;;;;;;;;;;;;;;16.70;59.70;102201.88;5041157;28;20031;-61
2022/07/18 05:46:36;;;;;;;;;;;;;;;16.76;59.30;102195.84;5058220;28;19925;-61
2022/07/18 05:49:02;;;;;;;;;;;;;;;16.87;59.71;102201.88;5051494;28;19925;-61
2022/07/18 05:51:28;;;;;;;;;;;;;;;16.94;60.63;102197.50;5055649;28;19925;-61
2022/07/18 05:53:53;;;;;;;;;;;;;;;17.02;59.46;102205.53;5065705;28;19920;-61
2022/07/18 05:56:18;;;;;;;;;;;;;;;17.14;59.89;102203.34;5053314;28;19939;-61
2022/07/18 05:58:44;;;;;;;;;;;;;;;17.27;59.33;102202.78;5052587;28;19968;-61
2022/07/18 06:01:09;;;;;;;;;;;;;;;17.38;59.70;102198.06;5055554;28;19978;-61
2022/07/18 06:03:34;;;;;;;;;;;;;;;17.50;59.11;102202.03;5052846;28;20019;-61
2022/07/18 06:05:59;;;;;;;;;;;;;;;17.60;59.08;102197.28;5051467;28;19931;-61
2022/07/18 06:08:24;;;;;;;;;;;;;;;17.75;58.78;102199.22;5046840;28;19925;-61
2022/07/18 06:10:49;;;;;;;;;;;;;;;17.88;58.96;102199.47;5050440;28;19925;-62
2022/07/18 06:13:15;;;;;;;;;;;;;;;18.03;58.03;102201.41;5053049;28;20051;-62
2022/07/18 06:15:40;;;;;;;;;;;;;;;18.17;57.66;102205.22;5056241;28;19920;-61
2022/07/18 06:18:05;;;;;;;;;;;;;;;18.30;57.63;102201.09;5054087;28;19921;-62
2022/07/18 06:20:31;;;;;;;;;;;;;;;18.43;57.20;102193.25;5051925;28;20282;-61
2022/07/18 06:22:56;;;;;;;;;;;;;;;18.57;56.91;102190.78;5053045;28;19927;-61
2022/07/18 06:25:21;;;;;;;;;;;;;;;18.69;56.52;102184.78;5049522;28;20563;-61
2022/07/18 06:27:46;;;;;;;;;;;;;;;18.82;55.48;102184.19;5048766;28;19929;-60
2022/07/18 06:30:12;;;;;;;;;;;;;;;18.93;55.70;102184.72;5051480;28;20425;-59
2022/07/18 06:32:37;;;;;;;;;;;;;;;19.03;54.77;102179.09;5055724;28;19928;-59
2022/07/18 06:35:03;;;;;;;;;;;;;;;19.12;54.50;102175.31;5050970;28;19924;-59
2022/07/18 06:37:28;;;;;;;;;;;;;;;19.22;55.16;102175.88;5053768;28;19929;-59
2022/07/18 06:39:53;;;;;;;;;;;;;;;19.32;54.88;102177.41;5052253;28;19968;-59
2022/07/18 06:42:18;;;;;;;;;;;;;;;19.40;54.76;102169.25;5051525;28;19924;-59
2022/07/18 06:44:43;;;;;;;;;;;;;;;19.53;54.02;102173.13;5048091;28;20338;-59
2022/07/18 06:47:08;;;;;;;;;;;;;;;19.60;54.45;102169.47;5056501;28;20015;-60
2022/07/18 06:49:34;;;;;;;;;;;;;;;19.70;54.58;102171.88;5057075;28;20007;-60
2022/07/18 06:51:59;;;;;;;;;;;;;;;19.82;54.00;102168.66;5051945;28;20771;-59
2022/07/18 06:54:27;;;;;;;;;;;;;;;19.90;54.09;102160.47;5069523;28;19928;-60
2022/07/18 06:56:53;;;;;;;;;;;;;;;20.01;52.98;102165.38;5049692;28;19944;-59
2022/07/18 06:59:18;;;;;;;;;;;;;;;20.12;53.75;102165.88;5053372;28;19929;-60
2022/07/18 07:01:43;;;;;;;;;;;;;;;20.24;52.86;102168.91;5051601;28;19921;-59
2022/07/18 07:04:08;;;;;;;;;;;;;;;20.37;52.87;102168.19;5056299;28;19935;-60
2022/07/18 07:06:34;;;;;;;;;;;;;;;20.43;52.38;102162.84;5049503;28;19924;-60
2022/07/18 07:08:59;;;;;;;;;;;;;;;20.54;51.63;102169.53;5054320;28;20082;-58
2022/07/18 07:11:24;;;;;;;;;;;;;;;20.66;50.72;102166.31;5052550;28;20354;-58
2022/07/18 07:13:49;;;;;;;;;;;;;;;20.78;51.95;102164.72;5047064;28;20026;-58
2022/07/18 07:16:15;;;;;;;;;;;;;;;20.92;49.47;102168.38;5034356;28;19954;-58
2022/07/18 07:18:40;;;;;;;;;;;;;;;21.04;51.66;102171.34;5051738;28;19928;-57
2022/07/18 07:21:06;;;;;;;;;;;;;;;21.17;49.94;102170.56;5051287;28;19929;-58
2022/07/18 07:23:31;;;;;;;;;;;;;;;21.29;50.43;102176.25;5048773;28;19928;-58
2022/07/18 07:25:56;;;;;;;;;;;;;;;21.37;49.90;102167.97;5052083;28;19925;-58
2022/07/18 07:28:21;;;;;;;;;;;;;;;21.47;47.20;102172.16;5059682;28;20015;-59
2022/07/18 07:30:47;;;;;;;;;;;;;;;21.60;49.82;102169.50;5054176;28;20159;-58
2022/07/18 07:33:12;;;;;;;;;;;;;;;21.71;49.38;102178.06;5055435;28;20318;-58
2022/07/18 07:35:37;;;;;;;;;;;;;;;21.75;49.14;102176.59;5051109;28;19929;-58
2022/07/18 07:38:02;;;;;;;;;;;;;;;21.83;49.10;102173.75;5056239;28;19935;-60
2022/07/18 07:40:28;;;;;;;;;;;;;;;21.97;47.58;102171.91;5061239;28;19978;-59
2022/07/18 07:43:06;;;;;;;;;;;;;;;22.07;47.42;102171.50;5058972;28;20383;-59
2022/07/18 07:45:32;;;;;;;;;;;;;;;22.17;48.32;102169.19;5063085;28;20797;-59
2022/07/18 07:47:57;;;;;;;;;;;;;;;22.28;48.70;102162.34;5061041;28;19924;-58
2022/07/18 07:50:22;;;;;;;;;;;;;;;22.40;47.96;102165.25;5062113;28;19925;-58
2022/07/18 07:52:47;;;;;;;;;;;;;;;22.51;47.37;102160.25;5060576;28;19959;-58
2022/07/18 07:55:12;;;;;;;;;;;;;;;22.60;47.40;102159.03;5064200;28;19986;-58
2022/07/18 07:57:38;;;;;;;;;;;;;;;22.66;47.79;102151.94;5067533;28;19920;-60
2022/07/18 08:00:04;;;;;;;;;;;;;;;22.73;47.33;102141.13;5065361;28;19936;-61
2022/07/18 08:02:29;;;;;;;;;;;;;;;22.78;45.03;102138.59;5063154;28;19928;-60
2022/07/18 08:04:54;;;;;;;;;;;;;;;22.86;46.47;102141.09;5058402;28;19924;-61
2022/07/18 08:07:20;;;;;;;;;;;;;;;23.03;44.46;102140.63;5058830;28;20643;-61
2022/07/18 08:09:46;;;;;;;;;;;;;;;23.05;44.26;102133.13;5066584;28;19969;-60
2022/07/18 08:12:11;;;;;;;;;;;;;;;23.11;42.87;102140.38;5066716;28;20022;-61
2022/07/18 08:14:39;;;;;;;;;;;;;;;23.19;45.04;102129.28;5060142;28;19925;-60
2022/07/18 08:17:05;;;;;;;;;;;;;;;23.29;44.32;102128.00;5056012;28;20402;-60
2022/07/18 08:19:30;;;;;;;;;;;;;;;23.43;40.92;102126.91;5065527;28;19924;-60
2022/07/18 08:21:55;;;;;;;;;;;;;;;23.45;42.74;102122.13;5065961;28;19924;-61
2022/07/18 08:24:20;;;;;;;;;;;;;;;23.53;42.00;102120.22;5060542;28;19932;-61
2022/07/18 08:26:46;;;;;;;;;;;;;;;23.63;42.04;102123.28;5051017;28;20039;-59
2022/07/18 08:29:11;;;;;;;;;;;;;;;23.73;42.78;102117.38;5058456;28;20407;-60
2022/07/18 08:31:36;;;;;;;;;;;;;;;23.88;41.10;102119.78;5060541;28;19921;-60
2022/07/18 08:34:02;;;;;;;;;;;;;;;23.94;42.30;102124.31;5055538;28;19924;-60
2022/07/18 08:36:27;;;;;;;;;;;;;;;24.01;41.66;102133.19;5066806;28;19973;-59
2022/07/18 08:38:52;;;;;;;;;;;;;;;24.08;41.70;102129.63;5085781;28;19931;-60
2022/07/18 08:41:18;;;;;;;;;;;;;;;24.15;42.17;102130.41;5047381;28;19950;-61
2022/07/18 08:43:44;;;;;;;;;;;;;;;24.23;42.12;102138.25;5056392;28;19928;-60
2022/07/18 08:46:10;;;;;;;;;;;;;;;24.29;42.37;102136.53;5054438;28;19986;-60
2022/07/18 08:48:35;;;;;;;;;;;;;;;24.37;41.19;102136.25;5061168;28;20421;-62
2022/07/18 08:51:01;;;;;;;;;;;;;;;24.49;42.38;102136.34;5057762;28;20363;-60
2022/07/18 08:53:26;;;;;;;;;;;;;;;24.58;42.07;102140.41;5059920;28;19925;-60
2022/07/18 08:55:52;;;;;;;;;;;;;;;24.64;41.88;102135.16;5061072;28;20306;-60
2022/07/18 08:58:17;;;;;;;;;;;;;;;24.70;41.32;102126.09;5061919;28;19920;-60
2022/07/18 09:00:43;;;;;;;;;;;;;;;24.76;39.96;102124.38;5063443;28;19929;-60
2022/07/18 09:03:08;;;;;;;;;;;;;;;24.82;41.02;102124.31;5061637;28;21436;-60
2022/07/18 09:05:33;;;;;;;;;;;;;;;24.89;41.23;102128.84;5059856;28;20019;-60
2022/07/18 09:08:10;;;;;;;;;;;;;;;24.94;39.53;102127.13;5049942;28;20067;-60
2022/07/18 09:10:51;;;;;;;;;;;;;;;25.01;41.30;102124.31;5055100;28;19924;-60
2022/07/18 09:13:17;;;;;;;;;;;;;;;25.09;41.46;102123.19;5057193;28;20287;-61
2022/07/18 09:16:02;;;;;;;;;;;;;;;25.14;41.42;102130.63;5058161;28;19981;-60
2022/07/18 09:18:31;;;;;;;;;;;;;;;25.23;41.39;102130.09;5055523;28;20015;-60
2022/07/18 09:21:18;;;;;;;;;;;;;;;25.33;39.77;102124.13;5051825;28;19920;-60
2022/07/18 09:23:44;;;;;;;;;;;;;;;25.36;40.27;102128.25;5052592;28;19929;-60
2022/07/18 09:26:10;;;;;;;;;;;;;;;25.56;37.83;102132.59;5053730;28;20009;-61
2022/07/18 09:28:49;;;;;;;;;;;;;;;25.54;39.31;102130.13;5051873;28;20329;-60
2022/07/18 09:31:21;;;;;;;;;;;;;;;25.64;39.50;102134.97;5061477;28;19928;-61
2022/07/18 09:33:53;;;;;;;;;;;;;;;25.76;39.72;102132.31;5052651;28;19981;-62
2022/07/18 09:36:18;;;;;;;;;;;;;;;25.88;39.28;102129.59;5050129;28;19925;-60
2022/07/18 09:38:43;;;;;;;;;;;;;;;26.00;38.39;102133.16;5056824;28;20295;-61
2022/07/18 09:41:10;;;;;;;;;;;;;;;26.06;37.89;102132.22;5047339;28;20565;-60
2022/07/18 09:43:37;;;;;;;;;;;;;;;26.15;39.84;102140.84;5050991;28;19924;-61
2022/07/18 09:46:03;;;;;;;;;;;;;;;26.23;39.88;102131.56;5055126;28;19924;-61
2022/07/18 09:48:28;;;;;;;;;;;;;;;26.29;40.47;102127.09;5049377;28;20274;-61
2022/07/18 09:51:01;;;;;;;;;;;;;;;26.35;39.52;102128.84;5053349;28;19928;-61
2022/07/18 09:53:29;;;;;;;;;;;;;;;26.41;38.52;102119.75;5056136;28;19936;-60
2022/07/18 09:55:55;;;;;;;;;;;;;;;26.43;37.72;102120.31;5049781;28;19928;-60
2022/07/18 09:58:22;;;;;;;;;;;;;;;26.51;38.15;102126.47;5060599;28;19931;-60
2022/07/18 10:00:47;;;;;;;;;;;;;;;26.57;39.58;102125.50;5054728;28;19924;-61
2022/07/18 10:03:13;;;;;;;;;;;;;;;26.71;39.60;102121.47;5056997;28;20427;-61
2022/07/18 10:05:39;;;;;;;;;;;;;;;26.82;38.71;102127.94;5051514;28;19925;-60
2022/07/18 10:08:11;;;;;;;;;;;;;;;26.91;39.86;102125.69;5061761;28;19924;-61
2022/07/18 10:10:38;;;;;;;;;;;;;;;27.06;39.85;102121.63;5076381;28;19970;-59
2022/07/18 10:13:03;;;;;;;;;;;;;;;27.18;39.11;102121.59;5055213;28;19931;-59
2022/07/18 10:15:30;;;;;;;;;;;;;;;27.26;38.89;102119.31;5057662;28;19920;-56
2022/07/18 10:17:56;;;;;;;;;;;;;;;27.35;38.37;102124.34;5061159;28;19921;-58
2022/07/18 10:20:26;;;;;;;;;;;;;;;27.38;37.11;102118.44;5053930;28;20340;-60
2022/07/18 10:22:53;;;;;;;;;;;;;;;27.37;38.46;102119.47;5053281;28;20371;-60
2022/07/18 10:25:20;;;;;;;;;;;;;;;27.42;38.69;102130.47;5063325;28;19920;-61
2022/07/18 10:27:50;;;;;;;;;;;;;;;27.53;37.37;102115.16;5068402;28;19920;-60
2022/07/18 10:30:15;;;;;;;;;;;;;;;27.58;36.93;102117.16;5056591;28;19938;-60
2022/07/18 10:32:41;;;;;;;;;;;;;;;27.57;38.27;102115.47;5067071;28;20367;-60
2022/07/18 10:35:06;;;;;;;;;;;;;;;27.64;37.78;102121.63;5065537;28;20012;-60
2022/07/18 10:37:34;;;;;;;;;;;;;;;27.74;38.28;102110.91;5070346;28;19920;-60
2022/07/18 10:40:19;;;;;;;;;;;;;;;27.89;38.51;102109.50;5066642;28;19959;-60
2022/07/18 10:42:44;;;;;;;;;;;;;;;27.95;37.90;102110.38;5081763;28;20313;-59
2022/07/18 10:45:42;;;;;;;;;;;;;;;28.06;36.90;102106.75;5065727;28;19916;-60
2022/07/18 10:48:26;;;;;;;;;;;;;;;28.10;38.04;102107.91;5062333;28;19924;-60
2022/07/18 10:51:07;;;;;;;;;;;;;;;28.17;36.75;102105.00;5072670;28;19927;-60
2022/07/18 10:53:50;;;;;;;;;;;;;;;28.21;36.26;102106.13;5072455;28;19917;-60
2022/07/18 10:56:16;;;;;;;;;;;;;;;28.22;37.43;102094.19;5066422;28;19920;-61
2022/07/18 10:58:41;;;;;;;;;;;;;;;28.31;34.55;102100.88;5068153;28;20358;-60
2022/07/18 11:01:13;;;;;;;;;;;;;;;28.42;34.48;102109.19;5055790;28;19927;-62
2022/07/18 11:03:38;;;;;;;;;;;;;;;28.41;35.27;102102.09;5070901;28;19920;-60
2022/07/18 11:06:03;;;;;;;;;;;;;;;28.45;34.88;102098.59;5069752;28;20430;-60
2022/07/18 11:08:33;;;;;;;;;;;;;;;28.53;35.23;102093.78;5068578;28;19977;-59
2022/07/18 11:11:01;;;;;;;;;;;;;;;28.65;35.36;102086.28;5074558;28;19935;-60
2022/07/18 11:13:32;;;;;;;;;;;;;;;28.77;32.48;102088.06;5064821;28;19921;-58
2022/07/18 11:16:07;;;;;;;;;;;;;;;28.82;32.99;102090.84;5066393;28;19973;-58
2022/07/18 11:18:52;;;;;;;;;;;;;;;28.89;32.27;102096.13;5064563;28;19921;-58
2022/07/18 11:21:19;;;;;;;;;;;;;;;28.98;32.75;102084.53;5063485;28;20051;-59
2022/07/18 11:23:46;;;;;;;;;;;;;;;29.04;31.85;102082.66;5060801;28;19916;-59
2022/07/18 11:26:15;;;;;;;;;;;;;;;29.10;32.29;102080.81;5064762;28;19924;-59
2022/07/18 11:28:41;;;;;;;;;;;;;;;29.21;32.79;102082.56;5060463;28;20599;-59
2022/07/18 11:31:07;;;;;;;;;;;;;;;29.33;31.82;102085.13;5059109;28;20040;-60
2022/07/18 11:33:37;;;;;;;;;;;;;;;29.32;32.01;102075.28;5066679;28;19920;-59
2022/07/18 11:36:06;;;;;;;;;;;;;;;29.30;31.33;102080.19;5059146;28;22161;-60
2022/07/18 11:38:32;;;;;;;;;;;;;;;29.30;32.78;102074.72;5063284;28;19927;-60
2022/07/18 11:40:57;;;;;;;;;;;;;;;29.40;32.72;102074.81;5061153;28;19921;-59
2022/07/18 11:43:23;;;;;;;;;;;;;;;29.56;31.27;102072.25;5061608;28;20341;-60
2022/07/18 11:45:58;;;;;;;;;;;;;;;29.56;32.45;102065.94;5063234;28;20353;-59
2022/07/18 11:48:23;;;;;;;;;;;;;;;29.64;32.16;102063.56;5065349;28;19921;-58
2022/07/18 11:50:48;;;;;;;;;;;;;;;29.72;31.98;102075.09;5059258;28;20567;-59
2022/07/18 11:53:14;;;;;;;;;;;;;;;29.83;32.78;102063.13;5064190;28;20355;-59
2022/07/18 11:55:39;;;;;;;;;;;;;;;29.94;32.06;102062.13;5062117;28;20012;-61
2022/07/18 11:58:07;;;;;;;;;;;;;;;30.04;32.63;102055.06;5056946;28;19974;-60
2022/07/18 12:00:33;;;;;;;;;;;;;;;30.12;32.34;102062.81;5064612;28;19973;-60
2022/07/18 12:03:07;;;;;;;;;;;;;;;30.15;31.85;102062.25;5063853;28;19924;-60
2022/07/18 12:05:36;;;;;;;;;;;;;;;30.07;30.08;102060.00;5062826;28;19929;-60
2022/07/18 12:08:21;;;;;;;;;;;;;;;30.06;31.50;102052.91;5063439;28;19921;-61
2022/07/18 12:11:10;;;;;;;;;;;;;;;29.97;31.65;102054.47;5063251;28;19921;-60
2022/07/18 12:13:39;;;;;;;;;;;;;;;30.07;32.24;102051.81;5059617;28;19967;-61
2022/07/18 12:16:04;;;;;;;;;;;;;;;30.19;32.35;102040.69;5064511;28;19928;-59
2022/07/18 12:18:30;;;;;;;;;;;;;;;30.32;31.56;102047.56;5065319;28;19935;-60
2022/07/18 12:21:10;;;;;;;;;;;;;;;30.34;31.28;102048.16;5055231;28;19932;-58
2022/07/18 12:23:41;;;;;;;;;;;;;;;30.38;31.19;102038.28;5068746;28;19928;-59
2022/07/18 12:26:06;;;;;;;;;;;;;;;30.47;31.27;102044.06;5063620;28;20409;-59
2022/07/18 12:28:32;;;;;;;;;;;;;;;30.50;30.37;102042.72;5062931;28;19924;-58
2022/07/18 12:30:57;;;;;;;;;;;;;;;30.49;31.44;102041.91;5072067;28;19920;-58
2022/07/18 12:33:22;;;;;;;;;;;;;;;30.61;31.41;102044.41;5069844;28;19923;-58
2022/07/18 12:35:55;;;;;;;;;;;;;;;30.66;31.95;102033.47;5073121;28;19917;-58